Weather at Cassville Municipal Airport

Public forecast

Using degrees Fahrenheit for public forecast. Weather courtesy of forecast.io.

Closest aviation weather report (METAR) to Cassville Municipal Airport

Closest report is Prairie Du Chien Municipal Airport, 20.2 nm (37.4 km) NNW. Retrieved 2021/06/13 10:35 UTC (3 minutes ago):

KPDC 131035Z AUTO 00000KT 10SM CLR 13/11 A3004 RMK AO2 T01320109

Closest aviation forecast (TAF) to Cassville Municipal Airport

Closest forecast is Dubuque Regional Airport, 21.4 nm (39.6 km) SSE. Retrieved 2021/06/13 06:22 UTC (4 hours ago):

TAF KDBQ 130520Z 1306/1406 34005KT P6SM SKC FM140200 23005KT P6SM SKC